createdAt,value
2022-10-14T00:00:50.297Z,101377.22
2022-10-14T00:10:51.555Z,101388.28
2022-10-14T00:20:52.802Z,101391.06
2022-10-14T00:30:54.057Z,101371.69
2022-10-14T00:40:55.299Z,101363.13
2022-10-14T00:50:56.556Z,101357.59
2022-10-14T01:00:57.856Z,101346.25
2022-10-14T01:10:59.143Z,101342.22
2022-10-14T01:21:00.417Z,101329.94
2022-10-14T01:31:01.664Z,101296.00
2022-10-14T01:41:02.884Z,101284.19
2022-10-14T01:51:04.146Z,101268.38
2022-10-14T02:01:05.503Z,101274.19
2022-10-14T02:11:06.750Z,101267.59
2022-10-14T02:21:08.047Z,101259.59
2022-10-14T02:31:09.282Z,101258.56
2022-10-14T02:41:10.525Z,101255.81
2022-10-14T02:51:11.779Z,101249.78
2022-10-14T03:01:13.051Z,101231.41
2022-10-14T03:11:14.301Z,101218.31
2022-10-14T03:21:15.571Z,101218.31
2022-10-14T03:31:16.859Z,101213.28
2022-10-14T03:41:18.107Z,101198.25
2022-10-14T03:51:19.338Z,101184.91
2022-10-14T04:01:20.625Z,101184.91
2022-10-14T04:11:21.921Z,101171.09
2022-10-14T04:21:23.137Z,101175.84
2022-10-14T04:31:24.429Z,101162.03
2022-10-14T04:41:25.681Z,101158.97
2022-10-14T04:51:26.926Z,101152.19
2022-10-14T05:01:33.041Z,101145.44
2022-10-14T05:11:35.212Z,101128.84
2022-10-14T05:21:36.451Z,101123.34
2022-10-14T05:31:37.677Z,101098.19
2022-10-14T05:41:39.070Z,101097.19
2022-10-14T05:51:40.393Z,101073.59
2022-10-14T06:01:41.623Z,101074.06
2022-10-14T06:11:42.993Z,101072.81
2022-10-14T06:21:44.331Z,101055.47
2022-10-14T06:31:47.031Z,101061.00
2022-10-14T06:41:48.549Z,101048.44
2022-10-14T06:51:49.936Z,101053.97
2022-10-14T07:01:51.388Z,101047.44
2022-10-14T07:11:52.751Z,101024.09
2022-10-14T07:21:54.107Z,101039.44
2022-10-14T07:32:04.896Z,101048.97
2022-10-14T07:42:16.321Z,101045.25
2022-10-14T07:52:23.302Z,101046.47
2022-10-14T08:02:28.537Z,101032.91
2022-10-14T08:12:39.062Z,101037.47
2022-10-14T08:22:47.827Z,101021.38
2022-10-14T08:32:55.329Z,101022.63
2022-10-14T08:43:01.271Z,101022.94
2022-10-14T08:53:18.148Z,101022.94
2022-10-14T09:03:22.674Z,101016.19
2022-10-14T09:13:29.515Z,101006.34
2022-10-14T09:23:34.549Z,101006.91
2022-10-14T09:33:48.195Z,100994.31
2022-10-14T09:43:51.584Z,100995.09
2022-10-14T09:53:59.430Z,100989.78
2022-10-14T10:04:11.321Z,100971.47
2022-10-14T10:14:14.337Z,100983.25
2022-10-14T10:24:16.350Z,100954.19
2022-10-14T10:34:18.579Z,100948.88
2022-10-14T10:44:19.978Z,100948.88
2022-10-14T10:54:28.201Z,100940.84
2022-10-14T11:04:38.544Z,100931.28
2022-10-14T11:14:43.350Z,100922.00
2022-10-14T11:24:52.992Z,100919.50
2022-10-14T11:35:01.205Z,100909.66
2022-10-14T11:55:40.674Z,100876.50
2022-10-14T12:05:45.515Z,100862.94
2022-10-14T12:15:54.444Z,100861.94
2022-10-14T12:36:24.701Z,100818.19
2022-10-14T12:46:26.103Z,100828.53
2022-10-14T13:06:56.364Z,100823.97
2022-10-14T13:16:57.829Z,100807.38
2022-10-14T13:27:03.884Z,100817.16
2022-10-14T13:37:05.489Z,100806.88
2022-10-14T13:47:19.110Z,100795.56
2022-10-14T13:58:10.958Z,100791.03
2022-10-14T14:28:58.612Z,100765.41
2022-10-14T15:10:12.839Z,100747.84
2022-10-14T15:30:25.214Z,100741.53
2022-10-14T15:40:34.258Z,100739.56
2022-10-14T15:50:42.586Z,100738.03
2022-10-14T16:21:41.894Z,100722.19
2022-10-14T16:31:49.325Z,100729.22
2022-10-14T16:41:50.728Z,100724.19
2022-10-14T16:51:52.045Z,100716.41
2022-10-14T17:01:53.424Z,100714.16
2022-10-14T17:11:54.882Z,100720.72
2022-10-14T17:21:56.240Z,100734.56
2022-10-14T17:31:59.463Z,100722.22
2022-10-14T17:42:00.715Z,100719.69
2022-10-14T17:52:02.211Z,100738.78
2022-10-14T18:02:03.953Z,100735.25
2022-10-14T18:12:09.904Z,100731.75
2022-10-14T18:22:11.722Z,100726.69
2022-10-14T18:32:16.005Z,100717.41
2022-10-14T18:42:20.087Z,100716.63
2022-10-14T18:52:22.609Z,100699.31
2022-10-14T19:02:24.815Z,100692.00
2022-10-14T19:12:26.194Z,100686.00
2022-10-14T19:22:29.908Z,100672.41
2022-10-14T19:32:31.293Z,100681.44
2022-10-14T19:42:32.554Z,100673.63
2022-10-14T19:52:33.946Z,100672.13
2022-10-14T20:02:35.257Z,100656.81
2022-10-14T20:12:36.946Z,100663.09
2022-10-14T20:22:38.335Z,100662.34
2022-10-14T20:32:39.713Z,100673.91
2022-10-14T20:42:41.112Z,100660.56
2022-10-14T20:52:42.336Z,100671.63
2022-10-14T21:12:48.038Z,100678.91
2022-10-14T21:22:50.203Z,100670.88
2022-10-14T21:32:51.540Z,100667.09
2022-10-14T21:42:52.913Z,100664.81
2022-10-14T21:52:54.173Z,100670.34
2022-10-14T22:02:55.413Z,100654.53
2022-10-14T22:12:56.714Z,100640.72
2022-10-14T22:22:58.017Z,100644.75
2022-10-14T22:32:59.285Z,100654.75
2022-10-14T22:43:00.593Z,100645.97
2022-10-14T22:53:01.842Z,100647.97
2022-10-14T23:03:03.136Z,100630.38
2022-10-14T23:13:04.409Z,100620.84
2022-10-14T23:23:05.625Z,100624.88
2022-10-14T23:33:06.891Z,100614.03
2022-10-14T23:43:08.146Z,100613.28
2022-10-14T23:53:09.400Z,100605.50
